Aviation Digital Data Service (ADDS)

Output produced by METARs form (1802 UTC 24 June 2019)
found at http://www.aviationweather.gov/metar/data/
 
METAR text: PAAK 241756Z AUTO 17010KT 9SM BKN016 OVC022 08/06 A2985 RMK AO2 RAB04E14 SLP108 P0000 60000 T00780056 10078 20072 55000
Conditions at: PAAK (ATKA , AK, US) observed 1756 UTC 24 June 2019
Temperature: 7.8°C (46°F)
Dewpoint: 5.6°C (42°F) [RH = 86%]
Pressure (altimeter): 29.85 inches Hg (1010.9 mb)
[Sea-level pressure: 1010.8 mb]
Winds: from the S (170 degrees) at 12 MPH (10 knots; 5.1 m/s)
Visibility: 9 miles (14 km)
Ceiling: 1600 feet AGL
Clouds: broken clouds at 1600 feet AGL
overcast cloud deck at 2200 feet AGL
Weather: automated observation with no human augmentation;
there may or may not be significant weather present at this time

METAR text: PAAK 241703Z AUTO 17007KT 5SM BR BKN013 OVC018 07/06 A2984 RMK AO2
Conditions at: PAAK (ATKA , AK, US) observed 1703 UTC 24 June 2019
Temperature: 7.0°C (45°F)
Dewpoint: 6.0°C (43°F) [RH = 93%]
Pressure (altimeter): 29.84 inches Hg (1010.6 mb)
Winds: from the S (170 degrees) at 8 MPH (7 knots; 3.6 m/s)
Visibility: 5 miles ( 8 km)
Ceiling: 1300 feet AGL
Clouds: broken clouds at 1300 feet AGL
overcast cloud deck at 1800 feet AGL
Weather: BR  (mist)

METAR text: PAAK 241656Z AUTO 17009KT 7SM OVC016 08/06 A2984 RMK AO2 SLP106 T00780056
Conditions at: PAAK (ATKA , AK, US) observed 1656 UTC 24 June 2019
Temperature: 7.8°C (46°F)
Dewpoint: 5.6°C (42°F) [RH = 86%]
Pressure (altimeter): 29.84 inches Hg (1010.6 mb)
[Sea-level pressure: 1010.6 mb]
Winds: from the S (170 degrees) at 10 MPH (9 knots; 4.6 m/s)
Visibility: 7 miles (11 km)
Ceiling: 1600 feet AGL
Clouds: overcast cloud deck at 1600 feet AGL
Weather: automated observation with no human augmentation;
there may or may not be significant weather present at this time

METAR text: PAAK 241644Z AUTO 18009KT 10SM OVC016 07/06 A2984 RMK AO2
Conditions at: PAAK (ATKA , AK, US) observed 1644 UTC 24 June 2019
Temperature: 7.0°C (45°F)
Dewpoint: 6.0°C (43°F) [RH = 93%]
Pressure (altimeter): 29.84 inches Hg (1010.6 mb)
Winds: from the S (180 degrees) at 10 MPH (9 knots; 4.6 m/s)
Visibility: 10 or more miles (16+ km)
Ceiling: 1600 feet AGL
Clouds: overcast cloud deck at 1600 feet AGL
Weather: automated observation with no human augmentation;
there may or may not be significant weather present at this time

METAR text: PAAK 241556Z AUTO 17009KT 9SM BKN014 OVC021 07/06 A2984 RMK AO2 RAE56 SLP107 P0000 T00720056
Conditions at: PAAK (ATKA , AK, US) observed 1556 UTC 24 June 2019
Temperature: 7.2°C (45°F)
Dewpoint: 5.6°C (42°F) [RH = 90%]
Pressure (altimeter): 29.84 inches Hg (1010.6 mb)
[Sea-level pressure: 1010.7 mb]
Winds: from the S (170 degrees) at 10 MPH (9 knots; 4.6 m/s)
Visibility: 9 miles (14 km)
Ceiling: 1400 feet AGL
Clouds: broken clouds at 1400 feet AGL
overcast cloud deck at 2100 feet AGL
Weather: automated observation with no human augmentation;
there may or may not be significant weather present at this time

METAR text: PAAK 241456Z AUTO 16007KT 6SM -RA BR OVC012 08/06 A2985 RMK AO2 SLP109 P0000 60000 T00780061 56012
Conditions at: PAAK (ATKA , AK, US) observed 1456 UTC 24 June 2019
Temperature: 7.8°C (46°F)
Dewpoint: 6.1°C (43°F) [RH = 89%]
Pressure (altimeter): 29.85 inches Hg (1010.9 mb)
[Sea-level pressure: 1010.9 mb]
Winds: from the SSE (160 degrees) at 8 MPH (7 knots; 3.6 m/s)
Visibility: 6 miles (10 km)
Ceiling: 1200 feet AGL
Clouds: overcast cloud deck at 1200 feet AGL
Weather: -RA BR  (light rain, mist)

METAR text: PAAK 241356Z AUTO 17006KT 6SM -RA BR BKN013 OVC018 08/06 A2985 RMK AO2 SLP110 P0000 T00780061
Conditions at: PAAK (ATKA , AK, US) observed 1356 UTC 24 June 2019
Temperature: 7.8°C (46°F)
Dewpoint: 6.1°C (43°F) [RH = 89%]
Pressure (altimeter): 29.85 inches Hg (1010.9 mb)
[Sea-level pressure: 1011.0 mb]
Winds: from the S (170 degrees) at 7 MPH (6 knots; 3.1 m/s)
Visibility: 6 miles (10 km)
Ceiling: 1300 feet AGL
Clouds: broken clouds at 1300 feet AGL
overcast cloud deck at 1800 feet AGL
Weather: -RA BR  (light rain, mist)

METAR text: PAAK 241317Z AUTO 17008KT 8SM -RA BKN015 OVC020 08/06 A2986 RMK AO2 P0000
Conditions at: PAAK (ATKA , AK, US) observed 1317 UTC 24 June 2019
Temperature: 8.0°C (46°F)
Dewpoint: 6.0°C (43°F) [RH = 87%]
Pressure (altimeter): 29.86 inches Hg (1011.3 mb)
Winds: from the S (170 degrees) at 9 MPH (8 knots; 4.1 m/s)
Visibility: 8 miles (13 km)
Ceiling: 1500 feet AGL
Clouds: broken clouds at 1500 feet AGL
overcast cloud deck at 2000 feet AGL
Weather: -RA  (light rain)

METAR text: PAAK 241256Z AUTO 16010KT 9SM -RA BKN013 OVC020 08/06 A2987 RMK AO2 SLP116 P0000 T00780061
Conditions at: PAAK (ATKA , AK, US) observed 1256 UTC 24 June 2019
Temperature: 7.8°C (46°F)
Dewpoint: 6.1°C (43°F) [RH = 89%]
Pressure (altimeter): 29.87 inches Hg (1011.6 mb)
[Sea-level pressure: 1011.6 mb]
Winds: from the SSE (160 degrees) at 12 MPH (10 knots; 5.1 m/s)
Visibility: 9 miles (14 km)
Ceiling: 1300 feet AGL
Clouds: broken clouds at 1300 feet AGL
overcast cloud deck at 2000 feet AGL
Weather: -RA  (light rain)

METAR text: PAAK 241242Z AUTO 16007KT 9SM -RA SCT011 BKN015 OVC020 08/06 A2987 RMK AO2 P0000
Conditions at: PAAK (ATKA , AK, US) observed 1242 UTC 24 June 2019
Temperature: 8.0°C (46°F)
Dewpoint: 6.0°C (43°F) [RH = 87%]
Pressure (altimeter): 29.87 inches Hg (1011.6 mb)
Winds: from the SSE (160 degrees) at 8 MPH (7 knots; 3.6 m/s)
Visibility: 9 miles (14 km)
Ceiling: 1500 feet AGL
Clouds: scattered clouds at 1100 feet AGL
broken clouds at 1500 feet AGL
overcast cloud deck at 2000 feet AGL
Weather: -RA  (light rain)

METAR text: PAAK 241156Z AUTO 15012KT 5SM -RA BR BKN007 OVC015 07/06 A2988 RMK AO2 RAB49 CIG 005V011 SLP120 P0000 60000 7//// T00720061 10078 20067 56008
Conditions at: PAAK (ATKA , AK, US) observed 1156 UTC 24 June 2019
Temperature: 7.2°C (45°F)
Dewpoint: 6.1°C (43°F) [RH = 93%]
Pressure (altimeter): 29.88 inches Hg (1011.9 mb)
[Sea-level pressure: 1012.0 mb]
Winds: from the SSE (150 degrees) at 14 MPH (12 knots; 6.2 m/s)
Visibility: 5 miles ( 8 km)
Ceiling: 700 feet AGL
Clouds: broken clouds at 700 feet AGL
overcast cloud deck at 1500 feet AGL
Weather: -RA BR  (light rain, mist)

METAR text: PAAK 241056Z AUTO 16011KT 8SM BKN009 OVC031 07/06 A2989 RMK AO2 RAB36E53 CIG 007V011 SLP121 P0000 T00720061
Conditions at: PAAK (ATKA , AK, US) observed 1056 UTC 24 June 2019
Temperature: 7.2°C (45°F)
Dewpoint: 6.1°C (43°F) [RH = 93%]
Pressure (altimeter): 29.89 inches Hg (1012.3 mb)
[Sea-level pressure: 1012.1 mb]
Winds: from the SSE (160 degrees) at 13 MPH (11 knots; 5.7 m/s)
Visibility: 8 miles (13 km)
Ceiling: 900 feet AGL
Clouds: broken clouds at 900 feet AGL
overcast cloud deck at 3100 feet AGL
Weather: automated observation with no human augmentation;
there may or may not be significant weather present at this time

METAR text: PAAK 240956Z AUTO 15009KT 9SM OVC007 07/06 A2990 RMK AO2 SLP125 T00670056
Conditions at: PAAK (ATKA , AK, US) observed 0956 UTC 24 June 2019
Temperature: 6.7°C (44°F)
Dewpoint: 5.6°C (42°F) [RH = 93%]
Pressure (altimeter): 29.90 inches Hg (1012.6 mb)
[Sea-level pressure: 1012.5 mb]
Winds: from the SSE (150 degrees) at 10 MPH (9 knots; 4.6 m/s)
Visibility: 9 miles (14 km)
Ceiling: 700 feet AGL
Clouds: overcast cloud deck at 700 feet AGL
Weather: automated observation with no human augmentation;
there may or may not be significant weather present at this time

METAR text: PAAK 240856Z AUTO 17007KT 7SM OVC009 07/06 A2990 RMK AO2 RAB18E31 CIG 007V012 SLP128 P0000 60000 T00670061 400940067 55002
Conditions at: PAAK (ATKA , AK, US) observed 0856 UTC 24 June 2019
Temperature: 6.7°C (44°F)
Dewpoint: 6.1°C (43°F) [RH = 96%]
Pressure (altimeter): 29.90 inches Hg (1012.6 mb)
[Sea-level pressure: 1012.8 mb]
Winds: from the S (170 degrees) at 8 MPH (7 knots; 3.6 m/s)
Visibility: 7 miles (11 km)
Ceiling: 900 feet AGL
Clouds: overcast cloud deck at 900 feet AGL
Weather: automated observation with no human augmentation;
there may or may not be significant weather present at this time

METAR text: PAAK 240756Z AUTO 16005KT 4SM BR FEW005 OVC009 07/07 A2990 RMK AO2 RAE45 CIG 008V012 SLP127 P0000 T00720067
Conditions at: PAAK (ATKA , AK, US) observed 0756 UTC 24 June 2019
Temperature: 7.2°C (45°F)
Dewpoint: 6.7°C (44°F) [RH = 97%]
Pressure (altimeter): 29.90 inches Hg (1012.6 mb)
[Sea-level pressure: 1012.7 mb]
Winds: from the SSE (160 degrees) at 6 MPH (5 knots; 2.6 m/s)
Visibility: 4 miles ( 6 km)
Ceiling: 900 feet AGL
Clouds: few clouds at 500 feet AGL
overcast cloud deck at 900 feet AGL
Weather: BR  (mist)

METAR text: PAAK 240745Z AUTO 13007KT 4SM BR SCT005 OVC011 08/07 A2990 RMK AO2 RAE45 CIG 008V015 P0000
Conditions at: PAAK (ATKA , AK, US) observed 0745 UTC 24 June 2019
Temperature: 8.0°C (46°F)
Dewpoint: 7.0°C (45°F) [RH = 93%]
Pressure (altimeter): 29.90 inches Hg (1012.6 mb)
Winds: from the SE (130 degrees) at 8 MPH (7 knots; 3.6 m/s)
Visibility: 4 miles ( 6 km)
Ceiling: 1100 feet AGL
Clouds: scattered clouds at 500 feet AGL
overcast cloud deck at 1100 feet AGL
Weather: BR  (mist)

METAR text: PAAK 240741Z AUTO 11009KT 2SM -RA BR OVC007 07/07 A2990 RMK AO2 VIS 1 1/4V5 CIG 003V010 P0000
Conditions at: PAAK (ATKA , AK, US) observed 0741 UTC 24 June 2019
Temperature: 7.0°C (45°F)
Dewpoint: 7.0°C (45°F) [RH = 100%]
Pressure (altimeter): 29.90 inches Hg (1012.6 mb)
Winds: from the ESE (110 degrees) at 10 MPH (9 knots; 4.6 m/s)
Visibility: 2.00 miles (3.22 km)
Ceiling: 700 feet AGL
Clouds: overcast cloud deck at 700 feet AGL
Weather: -RA BR  (light rain, mist)

METAR text: PAAK 240716Z AUTO 11012KT 1SM -RA BR OVC005 07/07 A2990 RMK AO2 CIG 003V009 P0000
Conditions at: PAAK (ATKA , AK, US) observed 0716 UTC 24 June 2019
Temperature: 7.0°C (45°F)
Dewpoint: 7.0°C (45°F) [RH = 100%]
Pressure (altimeter): 29.90 inches Hg (1012.6 mb)
Winds: from the ESE (110 degrees) at 14 MPH (12 knots; 6.2 m/s)
Visibility: 1.00 miles (1.61 km)
Ceiling: 500 feet AGL
Clouds: overcast cloud deck at 500 feet AGL
Weather: -RA BR  (light rain, mist)

METAR text: PAAK 240712Z AUTO 11011KT 1 1/4SM -RA BR BKN003 OVC007 07/07 A2990 RMK AO2 P0000
Conditions at: PAAK (ATKA , AK, US) observed 0712 UTC 24 June 2019
Temperature: 7.0°C (45°F)
Dewpoint: 7.0°C (45°F) [RH = 100%]
Pressure (altimeter): 29.90 inches Hg (1012.6 mb)
Winds: from the ESE (110 degrees) at 13 MPH (11 knots; 5.7 m/s)
Visibility: 1.25 miles (2.01 km)
Ceiling: 300 feet AGL
Clouds: broken clouds at 300 feet AGL
overcast cloud deck at 700 feet AGL
Weather: -RA BR  (light rain, mist)

METAR text: PAAK 240704Z AUTO 11011KT 1SM -RA BR OVC005 07/07 A2990 RMK AO2 CIG 002V007 P0000
Conditions at: PAAK (ATKA , AK, US) observed 0704 UTC 24 June 2019
Temperature: 7.0°C (45°F)
Dewpoint: 7.0°C (45°F) [RH = 100%]
Pressure (altimeter): 29.90 inches Hg (1012.6 mb)
Winds: from the ESE (110 degrees) at 13 MPH (11 knots; 5.7 m/s)
Visibility: 1.00 miles (1.61 km)
Ceiling: 500 feet AGL
Clouds: overcast cloud deck at 500 feet AGL
Weather: -RA BR  (light rain, mist)

METAR text: PAAK 240656Z AUTO 11011KT 1SM -RA BR OVC003 07/07 A2990 RMK AO2 CIG 002V007 SLP126 P0000 T00720072
Conditions at: PAAK (ATKA , AK, US) observed 0656 UTC 24 June 2019
Temperature: 7.2°C (45°F)
Dewpoint: 7.2°C (45°F) [RH = 100%]
Pressure (altimeter): 29.90 inches Hg (1012.6 mb)
[Sea-level pressure: 1012.6 mb]
Winds: from the ESE (110 degrees) at 13 MPH (11 knots; 5.7 m/s)
Visibility: 1.00 miles (1.61 km)
Ceiling: 300 feet AGL
Clouds: overcast cloud deck at 300 feet AGL
Weather: -RA BR  (light rain, mist)

METAR text: PAAK 240649Z AUTO 11013KT 3/4SM -RA BR BKN003 OVC008 07/07 A2990 RMK AO2 P0000
Conditions at: PAAK (ATKA , AK, US) observed 0649 UTC 24 June 2019
Temperature: 7.0°C (45°F)
Dewpoint: 7.0°C (45°F) [RH = 100%]
Pressure (altimeter): 29.90 inches Hg (1012.6 mb)
Winds: from the ESE (110 degrees) at 15 MPH (13 knots; 6.7 m/s)
Visibility: 0.75 miles (1.21 km)
Ceiling: 300 feet AGL
Clouds: broken clouds at 300 feet AGL
overcast cloud deck at 800 feet AGL
Weather: -RA BR  (light rain, mist)

METAR text: PAAK 240640Z AUTO 11012KT 1SM -RA BR OVC005 07/07 A2990 RMK AO2 CIG 002V007 P0000
Conditions at: PAAK (ATKA , AK, US) observed 0640 UTC 24 June 2019
Temperature: 7.0°C (45°F)
Dewpoint: 7.0°C (45°F) [RH = 100%]
Pressure (altimeter): 29.90 inches Hg (1012.6 mb)
Winds: from the ESE (110 degrees) at 14 MPH (12 knots; 6.2 m/s)
Visibility: 1.00 miles (1.61 km)
Ceiling: 500 feet AGL
Clouds: overcast cloud deck at 500 feet AGL
Weather: -RA BR  (light rain, mist)

METAR text: PAAK 240628Z AUTO 11013KT 3/4SM -RA BR OVC005 07/07 A2990 RMK AO2 CIG 002V009 P0000
Conditions at: PAAK (ATKA , AK, US) observed 0628 UTC 24 June 2019
Temperature: 7.0°C (45°F)
Dewpoint: 7.0°C (45°F) [RH = 100%]
Pressure (altimeter): 29.90 inches Hg (1012.6 mb)
Winds: from the ESE (110 degrees) at 15 MPH (13 knots; 6.7 m/s)
Visibility: 0.75 miles (1.21 km)
Ceiling: 500 feet AGL
Clouds: overcast cloud deck at 500 feet AGL
Weather: -RA BR  (light rain, mist)

METAR text: PAAK 240556Z AUTO 11012KT 1SM -RA BR BKN003 OVC007 07/07 A2991 RMK AO2 SLP130 P0000 6//// T00720072 10094 20072 56010
Conditions at: PAAK (ATKA , AK, US) observed 0556 UTC 24 June 2019
Temperature: 7.2°C (45°F)
Dewpoint: 7.2°C (45°F) [RH = 100%]
Pressure (altimeter): 29.91 inches Hg (1013.0 mb)
[Sea-level pressure: 1013.0 mb]
Winds: from the ESE (110 degrees) at 14 MPH (12 knots; 6.2 m/s)
Visibility: 1.00 miles (1.61 km)
Ceiling: 300 feet AGL
Clouds: broken clouds at 300 feet AGL
overcast cloud deck at 700 feet AGL
Weather: -RA BR  (light rain, mist)

METAR text: PAAK 240547Z AUTO 11012KT 1SM -RA BR OVC005 07/07 A2991 RMK AO2 CIG 003V008 P0000
Conditions at: PAAK (ATKA , AK, US) observed 0547 UTC 24 June 2019
Temperature: 7.0°C (45°F)
Dewpoint: 7.0°C (45°F) [RH = 100%]
Pressure (altimeter): 29.91 inches Hg (1013.0 mb)
Winds: from the ESE (110 degrees) at 14 MPH (12 knots; 6.2 m/s)
Visibility: 1.00 miles (1.61 km)
Ceiling: 500 feet AGL
Clouds: overcast cloud deck at 500 feet AGL
Weather: -RA BR  (light rain, mist)

METAR text: PAAK 240540Z AUTO 11013KT 3/4SM -RA BR OVC005 07/07 A2991 RMK AO2 CIG 003V008 P0000
Conditions at: PAAK (ATKA , AK, US) observed 0540 UTC 24 June 2019
Temperature: 7.0°C (45°F)
Dewpoint: 7.0°C (45°F) [RH = 100%]
Pressure (altimeter): 29.91 inches Hg (1013.0 mb)
Winds: from the ESE (110 degrees) at 15 MPH (13 knots; 6.7 m/s)
Visibility: 0.75 miles (1.21 km)
Ceiling: 500 feet AGL
Clouds: overcast cloud deck at 500 feet AGL
Weather: -RA BR  (light rain, mist)

METAR text: PAAK 240520Z AUTO 11012KT 1SM -RA BR OVC003 08/07 A2992 RMK AO2 P0000
Conditions at: PAAK (ATKA , AK, US) observed 0520 UTC 24 June 2019
Temperature: 8.0°C (46°F)
Dewpoint: 7.0°C (45°F) [RH = 93%]
Pressure (altimeter): 29.92 inches Hg (1013.3 mb)
Winds: from the ESE (110 degrees) at 14 MPH (12 knots; 6.2 m/s)
Visibility: 1.00 miles (1.61 km)
Ceiling: 300 feet AGL
Clouds: overcast cloud deck at 300 feet AGL
Weather: -RA BR  (light rain, mist)

METAR text: PAAK 240456Z AUTO 11013KT 3/4SM -RA BR OVC003 08/07 A2992 RMK AO2 SLP132 P0001 T00780072
Conditions at: PAAK (ATKA , AK, US) observed 0456 UTC 24 June 2019
Temperature: 7.8°C (46°F)
Dewpoint: 7.2°C (45°F) [RH = 96%]
Pressure (altimeter): 29.92 inches Hg (1013.3 mb)
[Sea-level pressure: 1013.2 mb]
Winds: from the ESE (110 degrees) at 15 MPH (13 knots; 6.7 m/s)
Visibility: 0.75 miles (1.21 km)
Ceiling: 300 feet AGL
Clouds: overcast cloud deck at 300 feet AGL
Weather: -RA BR  (light rain, mist)

METAR text: PAAK 240356Z AUTO 11015KT 3/4SM -RA BR OVC003 08/07 A2993 RMK AO2 SLP135 P0000 T00780072
Conditions at: PAAK (ATKA , AK, US) observed 0356 UTC 24 June 2019
Temperature: 7.8°C (46°F)
Dewpoint: 7.2°C (45°F) [RH = 96%]
Pressure (altimeter): 29.93 inches Hg (1013.6 mb)
[Sea-level pressure: 1013.5 mb]
Winds: from the ESE (110 degrees) at 17 MPH (15 knots; 7.7 m/s)
Visibility: 0.75 miles (1.21 km)
Ceiling: 300 feet AGL
Clouds: overcast cloud deck at 300 feet AGL
Weather: -RA BR  (light rain, mist)

METAR text: PAAK 240346Z AUTO 11015KT 3/4SM -RA BR OVC003 08/07 A2993 RMK AO2 P0000
Conditions at: PAAK (ATKA , AK, US) observed 0346 UTC 24 June 2019
Temperature: 8.0°C (46°F)
Dewpoint: 7.0°C (45°F) [RH = 93%]
Pressure (altimeter): 29.93 inches Hg (1013.6 mb)
Winds: from the ESE (110 degrees) at 17 MPH (15 knots; 7.7 m/s)
Visibility: 0.75 miles (1.21 km)
Ceiling: 300 feet AGL
Clouds: overcast cloud deck at 300 feet AGL
Weather: -RA BR  (light rain, mist)

METAR text: PAAK 240328Z AUTO 11014KT 1SM -RA BR BKN003 OVC007 08/07 A2993 RMK AO2 P0000
Conditions at: PAAK (ATKA , AK, US) observed 0328 UTC 24 June 2019
Temperature: 8.0°C (46°F)
Dewpoint: 7.0°C (45°F) [RH = 93%]
Pressure (altimeter): 29.93 inches Hg (1013.6 mb)
Winds: from the ESE (110 degrees) at 16 MPH (14 knots; 7.2 m/s)
Visibility: 1.00 miles (1.61 km)
Ceiling: 300 feet AGL
Clouds: broken clouds at 300 feet AGL
overcast cloud deck at 700 feet AGL
Weather: -RA BR  (light rain, mist)

METAR text: PAAK 240256Z AUTO 13017G22KT 1SM -RA BR BKN006 OVC010 09/08 A2994 RMK AO2 CIG 003V007 SLP140 6//// T00890083 58012
Conditions at: PAAK (ATKA , AK, US) observed 0256 UTC 24 June 2019
Temperature: 8.9°C (48°F)
Dewpoint: 8.3°C (47°F) [RH = 96%]
Pressure (altimeter): 29.94 inches Hg (1014.0 mb)
[Sea-level pressure: 1014.0 mb]
Winds: from the SE (130 degrees) at 20 MPH (17 knots; 8.7 m/s)
gusting to 25 MPH (22 knots; 11.3 m/s)
Visibility: 1.00 miles (1.61 km)
Ceiling: 600 feet AGL
Clouds: broken clouds at 600 feet AGL
overcast cloud deck at 1000 feet AGL
Weather: -RA BR  (light rain, mist)

METAR text: PAAK 240233Z AUTO 13018G24KT 1SM -RA BR BKN006 OVC010 09/08 A2995 RMK AO2 CIG 003V008
Conditions at: PAAK (ATKA , AK, US) observed 0233 UTC 24 June 2019
Temperature: 9.0°C (48°F)
Dewpoint: 8.0°C (46°F) [RH = 93%]
Pressure (altimeter): 29.95 inches Hg (1014.3 mb)
Winds: from the SE (130 degrees) at 21 MPH (18 knots; 9.3 m/s)
gusting to 28 MPH (24 knots; 12.3 m/s)
Visibility: 1.00 miles (1.61 km)
Ceiling: 600 feet AGL
Clouds: broken clouds at 600 feet AGL
overcast cloud deck at 1000 feet AGL
Weather: -RA BR  (light rain, mist)

METAR text: PAAK 240156Z AUTO 13017G24KT 1 1/4SM RA BR OVC008 09/08 A2996 RMK AO2 CIG 003V011 SLP146 T00890083 PNO $
Conditions at: PAAK (ATKA , AK, US) observed 0156 UTC 24 June 2019
Temperature: 8.9°C (48°F)
Dewpoint: 8.3°C (47°F) [RH = 96%]
Pressure (altimeter): 29.96 inches Hg (1014.6 mb)
[Sea-level pressure: 1014.6 mb]
Winds: from the SE (130 degrees) at 20 MPH (17 knots; 8.7 m/s)
gusting to 28 MPH (24 knots; 12.3 m/s)
Visibility: 1.25 miles (2.01 km)
Ceiling: 800 feet AGL
Clouds: overcast cloud deck at 800 feet AGL
Weather: RA BR  (moderate rain, mist)
SOME DATA ABOVE MAY BE INACCURATE!!!
"$" is an indication the sensor requires maintenance

METAR text: PAAK 240126Z AUTO 13018KT 1SM RA BR OVC006 09/08 A2997 RMK AO2 CIG 004V012 PNO $
Conditions at: PAAK (ATKA , AK, US) observed 0126 UTC 24 June 2019
Temperature: 9.0°C (48°F)
Dewpoint: 8.0°C (46°F) [RH = 93%]
Pressure (altimeter): 29.97 inches Hg (1015.0 mb)
Winds: from the SE (130 degrees) at 21 MPH (18 knots; 9.3 m/s)
Visibility: 1.00 miles (1.61 km)
Ceiling: 600 feet AGL
Clouds: overcast cloud deck at 600 feet AGL
Weather: RA BR  (moderate rain, mist)
SOME DATA ABOVE MAY BE INACCURATE!!!
"$" is an indication the sensor requires maintenance

METAR text: PAAK 240118Z AUTO 13017KT 1 1/4SM -RA BR OVC006 09/08 A2997 RMK AO2 CIG 003V009 P0000
Conditions at: PAAK (ATKA , AK, US) observed 0118 UTC 24 June 2019
Temperature: 9.0°C (48°F)
Dewpoint: 8.0°C (46°F) [RH = 93%]
Pressure (altimeter): 29.97 inches Hg (1015.0 mb)
Winds: from the SE (130 degrees) at 20 MPH (17 knots; 8.7 m/s)
Visibility: 1.25 miles (2.01 km)
Ceiling: 600 feet AGL
Clouds: overcast cloud deck at 600 feet AGL
Weather: -RA BR  (light rain, mist)

METAR text: PAAK 240030Z AUTO 13017G23KT 1SM -RA BR OVC006 09/08 A2999 RMK AO2 CIG 003V011 P0001
Conditions at: PAAK (ATKA , AK, US) observed 0030 UTC 24 June 2019
Temperature: 9.0°C (48°F)
Dewpoint: 8.0°C (46°F) [RH = 93%]
Pressure (altimeter): 29.99 inches Hg (1015.7 mb)
Winds: from the SE (130 degrees) at 20 MPH (17 knots; 8.7 m/s)
gusting to 26 MPH (23 knots; 11.8 m/s)
Visibility: 1.00 miles (1.61 km)
Ceiling: 600 feet AGL
Clouds: overcast cloud deck at 600 feet AGL
Weather: -RA BR  (light rain, mist)

METAR text: PAAK 240020Z AUTO 12015G22KT 1SM -RA BR OVC004 09/08 A2999 RMK AO2 CIG 003V008 P0001
Conditions at: PAAK (ATKA , AK, US) observed 0020 UTC 24 June 2019
Temperature: 9.0°C (48°F)
Dewpoint: 8.0°C (46°F) [RH = 93%]
Pressure (altimeter): 29.99 inches Hg (1015.7 mb)
Winds: from the ESE (120 degrees) at 17 MPH (15 knots; 7.7 m/s)
gusting to 25 MPH (22 knots; 11.3 m/s)
Visibility: 1.00 miles (1.61 km)
Ceiling: 400 feet AGL
Clouds: overcast cloud deck at 400 feet AGL
Weather: -RA BR  (light rain, mist)

METAR text: PAAK 232356Z AUTO 11013KT 3/4SM -RA BR OVC004 08/08 A3000 RMK AO2 CIG 003V007 SLP160 6//// T00830078 10089 20083 58007
Conditions at: PAAK (ATKA , AK, US) observed 2356 UTC 23 June 2019
Temperature: 8.3°C (47°F)
Dewpoint: 7.8°C (46°F) [RH = 97%]
Pressure (altimeter): 30.00 inches Hg (1016.0 mb)
[Sea-level pressure: 1016.0 mb]
Winds: from the ESE (110 degrees) at 15 MPH (13 knots; 6.7 m/s)
Visibility: 0.75 miles (1.21 km)
Ceiling: 400 feet AGL
Clouds: overcast cloud deck at 400 feet AGL
Weather: -RA BR  (light rain, mist)

METAR text: PAAK 232346Z AUTO 11013KT 3/4SM -RA BR OVC004 08/08 A3000 RMK AO2
Conditions at: PAAK (ATKA , AK, US) observed 2346 UTC 23 June 2019
Temperature: 8.0°C (46°F)
Dewpoint: 8.0°C (46°F) [RH = 100%]
Pressure (altimeter): 30.00 inches Hg (1016.0 mb)
Winds: from the ESE (110 degrees) at 15 MPH (13 knots; 6.7 m/s)
Visibility: 0.75 miles (1.21 km)
Ceiling: 400 feet AGL
Clouds: overcast cloud deck at 400 feet AGL
Weather: -RA BR  (light rain, mist)

METAR text: PAAK 232256Z AUTO 12018G21KT 1SM -RA BR OVC004 09/08 A3001 RMK AO2 PK WND 13026/2239 CIG 003V008 SLP164 P0001 T00890083
Conditions at: PAAK (ATKA , AK, US) observed 2256 UTC 23 June 2019
Temperature: 8.9°C (48°F)
Dewpoint: 8.3°C (47°F) [RH = 96%]
Pressure (altimeter): 30.01 inches Hg (1016.3 mb)
[Sea-level pressure: 1016.4 mb]
Winds: from the ESE (120 degrees) at 21 MPH (18 knots; 9.3 m/s)
gusting to 24 MPH (21 knots; 10.8 m/s)
Visibility: 1.00 miles (1.61 km)
Ceiling: 400 feet AGL
Clouds: overcast cloud deck at 400 feet AGL
Weather: -RA BR  (light rain, mist)

METAR text: PAAK 232254Z AUTO 12014G21KT 1SM -RA BR OVC004 09/08 A3001 RMK AO2 PK WND 13026/2239 P0000
Conditions at: PAAK (ATKA , AK, US) observed 2254 UTC 23 June 2019
Temperature: 9.0°C (48°F)
Dewpoint: 8.0°C (46°F) [RH = 93%]
Pressure (altimeter): 30.01 inches Hg (1016.3 mb)
Winds: from the ESE (120 degrees) at 16 MPH (14 knots; 7.2 m/s)
gusting to 24 MPH (21 knots; 10.8 m/s)
Visibility: 1.00 miles (1.61 km)
Ceiling: 400 feet AGL
Clouds: overcast cloud deck at 400 feet AGL
Weather: -RA BR  (light rain, mist)

METAR text: PAAK 232232Z AUTO 13015G24KT 1 1/2SM -RA BR OVC004 08/08 A3002 RMK AO2 P0000
Conditions at: PAAK (ATKA , AK, US) observed 2232 UTC 23 June 2019
Temperature: 8.0°C (46°F)
Dewpoint: 8.0°C (46°F) [RH = 100%]
Pressure (altimeter): 30.02 inches Hg (1016.7 mb)
Winds: from the SE (130 degrees) at 17 MPH (15 knots; 7.7 m/s)
gusting to 28 MPH (24 knots; 12.3 m/s)
Visibility: 1.50 miles (2.41 km)
Ceiling: 400 feet AGL
Clouds: overcast cloud deck at 400 feet AGL
Weather: -RA BR  (light rain, mist)

METAR text: PAAK 232209Z AUTO 12014KT 2SM -RA BR OVC004 08/08 A3002 RMK AO2 P0000
Conditions at: PAAK (ATKA , AK, US) observed 2209 UTC 23 June 2019
Temperature: 8.0°C (46°F)
Dewpoint: 8.0°C (46°F) [RH = 100%]
Pressure (altimeter): 30.02 inches Hg (1016.7 mb)
Winds: from the ESE (120 degrees) at 16 MPH (14 knots; 7.2 m/s)
Visibility: 2.00 miles (3.22 km)
Ceiling: 400 feet AGL
Clouds: overcast cloud deck at 400 feet AGL
Weather: -RA BR  (light rain, mist)

METAR text: PAAK 232141Z AUTO 12015G20KT 1 1/4SM -RA BR OVC004 08/08 A3002 RMK AO2 P0001
Conditions at: PAAK (ATKA , AK, US) observed 2141 UTC 23 June 2019
Temperature: 8.0°C (46°F)
Dewpoint: 8.0°C (46°F) [RH = 100%]
Pressure (altimeter): 30.02 inches Hg (1016.7 mb)
Winds: from the ESE (120 degrees) at 17 MPH (15 knots; 7.7 m/s)
gusting to 23 MPH (20 knots; 10.3 m/s)
Visibility: 1.25 miles (2.01 km)
Ceiling: 400 feet AGL
Clouds: overcast cloud deck at 400 feet AGL
Weather: -RA BR  (light rain, mist)

METAR text: PAAK 232056Z AUTO 13019G23KT 1 1/4SM RA BR OVC004 08/08 A3003 RMK AO2 PK WND 13027/1957 SLP169 6//// T00830078 56012
Conditions at: PAAK (ATKA , AK, US) observed 2056 UTC 23 June 2019
Temperature: 8.3°C (47°F)
Dewpoint: 7.8°C (46°F) [RH = 97%]
Pressure (altimeter): 30.03 inches Hg (1017.0 mb)
[Sea-level pressure: 1016.9 mb]
Winds: from the SE (130 degrees) at 22 MPH (19 knots; 9.8 m/s)
gusting to 26 MPH (23 knots; 11.8 m/s)
Visibility: 1.25 miles (2.01 km)
Ceiling: 400 feet AGL
Clouds: overcast cloud deck at 400 feet AGL
Weather: RA BR  (moderate rain, mist)

METAR text: PAAK 232025Z AUTO 13020G26KT 1SM RA BR OVC004 08/08 A3003 RMK AO2 PK WND 13027/1957
Conditions at: PAAK (ATKA , AK, US) observed 2025 UTC 23 June 2019
Temperature: 8.0°C (46°F)
Dewpoint: 8.0°C (46°F) [RH = 100%]
Pressure (altimeter): 30.03 inches Hg (1017.0 mb)
Winds: from the SE (130 degrees) at 23 MPH (20 knots; 10.3 m/s)
gusting to 30 MPH (26 knots; 13.4 m/s)
Visibility: 1.00 miles (1.61 km)
Ceiling: 400 feet AGL
Clouds: overcast cloud deck at 400 feet AGL
Weather: RA BR  (moderate rain, mist)

METAR text: PAAK 231956Z AUTO 13022KT 1SM RA BR OVC006 08/08 A3003 RMK AO2 PK WND 13028/1922 SLP171 T00830078 PNO $
Conditions at: PAAK (ATKA , AK, US) observed 1956 UTC 23 June 2019
Temperature: 8.3°C (47°F)
Dewpoint: 7.8°C (46°F) [RH = 97%]
Pressure (altimeter): 30.03 inches Hg (1017.0 mb)
[Sea-level pressure: 1017.1 mb]
Winds: from the SE (130 degrees) at 25 MPH (22 knots; 11.3 m/s)
Visibility: 1.00 miles (1.61 km)
Ceiling: 600 feet AGL
Clouds: overcast cloud deck at 600 feet AGL
Weather: RA BR  (moderate rain, mist)
SOME DATA ABOVE MAY BE INACCURATE!!!
"$" is an indication the sensor requires maintenance

METAR text: PAAK 231856Z AUTO 12017G23KT 1SM RA BR OVC006 08/07 A3005 RMK AO2 PK WND 13026/1809 SLP176 T00830072
Conditions at: PAAK (ATKA , AK, US) observed 1856 UTC 23 June 2019
Temperature: 8.3°C (47°F)
Dewpoint: 7.2°C (45°F) [RH = 93%]
Pressure (altimeter): 30.05 inches Hg (1017.7 mb)
[Sea-level pressure: 1017.6 mb]
Winds: from the ESE (120 degrees) at 20 MPH (17 knots; 8.7 m/s)
gusting to 26 MPH (23 knots; 11.8 m/s)
Visibility: 1.00 miles (1.61 km)
Ceiling: 600 feet AGL
Clouds: overcast cloud deck at 600 feet AGL
Weather: RA BR  (moderate rain, mist)

METAR text: PAAK 231756Z AUTO 13021G26KT 1SM -RA BR OVC006 08/07 A3006 RMK AO2 PK WND 12030/1737 SLP181 P0000 60000 T00830072 10083 20078 57009
Conditions at: PAAK (ATKA , AK, US) observed 1756 UTC 23 June 2019
Temperature: 8.3°C (47°F)
Dewpoint: 7.2°C (45°F) [RH = 93%]
Pressure (altimeter): 30.06 inches Hg (1018.0 mb)
[Sea-level pressure: 1018.1 mb]
Winds: from the SE (130 degrees) at 24 MPH (21 knots; 10.8 m/s)
gusting to 30 MPH (26 knots; 13.4 m/s)
Visibility: 1.00 miles (1.61 km)
Ceiling: 600 feet AGL
Clouds: overcast cloud deck at 600 feet AGL
Weather: -RA BR  (light rain, mist)

METAR text: PAAK 231656Z AUTO 12016G26KT 1 1/4SM -RA BR OVC006 08/07 A3007 RMK AO2 PK WND 15028/1612 SLP185 P0000 T00780072
Conditions at: PAAK (ATKA , AK, US) observed 1656 UTC 23 June 2019
Temperature: 7.8°C (46°F)
Dewpoint: 7.2°C (45°F) [RH = 96%]
Pressure (altimeter): 30.07 inches Hg (1018.4 mb)
[Sea-level pressure: 1018.5 mb]
Winds: from the ESE (120 degrees) at 18 MPH (16 knots; 8.2 m/s)
gusting to 30 MPH (26 knots; 13.4 m/s)
Visibility: 1.25 miles (2.01 km)
Ceiling: 600 feet AGL
Clouds: overcast cloud deck at 600 feet AGL
Weather: -RA BR  (light rain, mist)

METAR text: PAAK 231556Z AUTO 13020G33KT 1 3/4SM -RA BR OVC008 08/07 A3008 RMK AO2 PK WND 13033/1554 RAB1457E07B28 CIG 006V011 SLP187 P0000 T00830067
Conditions at: PAAK (ATKA , AK, US) observed 1556 UTC 23 June 2019
Temperature: 8.3°C (47°F)
Dewpoint: 6.7°C (44°F) [RH = 90%]
Pressure (altimeter): 30.08 inches Hg (1018.7 mb)
[Sea-level pressure: 1018.7 mb]
Winds: from the SE (130 degrees) at 23 MPH (20 knots; 10.3 m/s)
gusting to 38 MPH (33 knots; 17.0 m/s)
Visibility: 1.75 miles (2.82 km)
Ceiling: 800 feet AGL
Clouds: overcast cloud deck at 800 feet AGL
Weather: -RA BR  (light rain, mist)

METAR text: PAAK 231547Z AUTO 13019G27KT 5SM -RA BR OVC008 08/07 A3008 RMK AO2 PK WND 14030/1537 RAB1457E07B28 CIG 006V011 P0000
Conditions at: PAAK (ATKA , AK, US) observed 1547 UTC 23 June 2019
Temperature: 8.0°C (46°F)
Dewpoint: 7.0°C (45°F) [RH = 93%]
Pressure (altimeter): 30.08 inches Hg (1018.7 mb)
Winds: from the SE (130 degrees) at 22 MPH (19 knots; 9.8 m/s)
gusting to 31 MPH (27 knots; 13.9 m/s)
Visibility: 5 miles ( 8 km)
Ceiling: 800 feet AGL
Clouds: overcast cloud deck at 800 feet AGL
Weather: -RA BR  (light rain, mist)

METAR text: PAAK 231532Z AUTO 13022G28KT 2SM -RA BR OVC008 08/07 A3008 RMK AO2 PK WND 14028/1526 RAB1457E07B28 CIG 005V010 P0000
Conditions at: PAAK (ATKA , AK, US) observed 1532 UTC 23 June 2019
Temperature: 8.0°C (46°F)
Dewpoint: 7.0°C (45°F) [RH = 93%]
Pressure (altimeter): 30.08 inches Hg (1018.7 mb)
Winds: from the SE (130 degrees) at 25 MPH (22 knots; 11.3 m/s)
gusting to 32 MPH (28 knots; 14.4 m/s)
Visibility: 2.00 miles (3.22 km)
Ceiling: 800 feet AGL
Clouds: overcast cloud deck at 800 feet AGL
Weather: -RA BR  (light rain, mist)

METAR text: PAAK 231456Z AUTO 13021G27KT 6SM BR OVC008 08/07 A3009 RMK AO2 PK WND 14032/1435 SLP191 T00830072 55017
Conditions at: PAAK (ATKA , AK, US) observed 1456 UTC 23 June 2019
Temperature: 8.3°C (47°F)
Dewpoint: 7.2°C (45°F) [RH = 93%]
Pressure (altimeter): 30.09 inches Hg (1019.0 mb)
[Sea-level pressure: 1019.1 mb]
Winds: from the SE (130 degrees) at 24 MPH (21 knots; 10.8 m/s)
gusting to 31 MPH (27 knots; 13.9 m/s)
Visibility: 6 miles (10 km)
Ceiling: 800 feet AGL
Clouds: overcast cloud deck at 800 feet AGL
Weather: BR  (mist)

METAR text: PAAK 231356Z AUTO 14023G33KT 10SM OVC008 08/07 A3009 RMK AO2 PK WND 14033/1348 SLP190 T00830067
Conditions at: PAAK (ATKA , AK, US) observed 1356 UTC 23 June 2019
Temperature: 8.3°C (47°F)
Dewpoint: 6.7°C (44°F) [RH = 90%]
Pressure (altimeter): 30.09 inches Hg (1019.0 mb)
[Sea-level pressure: 1019.0 mb]
Winds: from the SE (140 degrees) at 26 MPH (23 knots; 11.8 m/s)
gusting to 38 MPH (33 knots; 17.0 m/s)
Visibility: 10 or more miles (16+ km)
Ceiling: 800 feet AGL
Clouds: overcast cloud deck at 800 feet AGL
Weather: automated observation with no human augmentation;
there may or may not be significant weather present at this time

METAR text: PAAK 231256Z AUTO 13019G29KT 9SM OVC008 08/07 A3012 RMK AO2 PK WND 12029/1253 CIG 007V013 SLP200 T00830067
Conditions at: PAAK (ATKA , AK, US) observed 1256 UTC 23 June 2019
Temperature: 8.3°C (47°F)
Dewpoint: 6.7°C (44°F) [RH = 90%]
Pressure (altimeter): 30.12 inches Hg (1020.1 mb)
[Sea-level pressure: 1020.0 mb]
Winds: from the SE (130 degrees) at 22 MPH (19 knots; 9.8 m/s)
gusting to 33 MPH (29 knots; 14.9 m/s)
Visibility: 9 miles (14 km)
Ceiling: 800 feet AGL
Clouds: overcast cloud deck at 800 feet AGL
Weather: automated observation with no human augmentation;
there may or may not be significant weather present at this time

METAR text: PAAK 231156Z AUTO 14016KT 9SM OVC008 08/07 A3014 RMK AO2 PK WND 14030/1145 SLP207 6//// 7//// T00830072 10083 20072 58012
Conditions at: PAAK (ATKA , AK, US) observed 1156 UTC 23 June 2019
Temperature: 8.3°C (47°F)
Dewpoint: 7.2°C (45°F) [RH = 93%]
Pressure (altimeter): 30.14 inches Hg (1020.7 mb)
[Sea-level pressure: 1020.7 mb]
Winds: from the SE (140 degrees) at 18 MPH (16 knots; 8.2 m/s)
Visibility: 9 miles (14 km)
Ceiling: 800 feet AGL
Clouds: overcast cloud deck at 800 feet AGL
Weather: automated observation with no human augmentation;
there may or may not be significant weather present at this time

METAR text: PAAK 231056Z AUTO 12011G18KT 8SM OVC008 08/07 A3016 RMK AO2 CIG 007V011 SLP215 T00830072
Conditions at: PAAK (ATKA , AK, US) observed 1056 UTC 23 June 2019
Temperature: 8.3°C (47°F)
Dewpoint: 7.2°C (45°F) [RH = 93%]
Pressure (altimeter): 30.16 inches Hg (1021.4 mb)
[Sea-level pressure: 1021.5 mb]
Winds: from the ESE (120 degrees) at 13 MPH (11 knots; 5.7 m/s)
gusting to 21 MPH (18 knots; 9.3 m/s)
Visibility: 8 miles (13 km)
Ceiling: 800 feet AGL
Clouds: overcast cloud deck at 800 feet AGL
Weather: automated observation with no human augmentation;
there may or may not be significant weather present at this time

METAR text: PAAK 231005Z AUTO 11010G17KT 9SM OVC008 08/07 A3017 RMK AO2 CIG 007V011
Conditions at: PAAK (ATKA , AK, US) observed 1005 UTC 23 June 2019
Temperature: 8.0°C (46°F)
Dewpoint: 7.0°C (45°F) [RH = 93%]
Pressure (altimeter): 30.17 inches Hg (1021.8 mb)
Winds: from the ESE (110 degrees) at 12 MPH (10 knots; 5.1 m/s)
gusting to 20 MPH (17 knots; 8.7 m/s)
Visibility: 9 miles (14 km)
Ceiling: 800 feet AGL
Clouds: overcast cloud deck at 800 feet AGL
Weather: automated observation with no human augmentation;
there may or may not be significant weather present at this time

METAR text: PAAK 230956Z AUTO 13011KT 8SM OVC010 08/07 A3018 RMK AO2 RAE41 CIG 007V014 SLP220 P0001 T00830072
Conditions at: PAAK (ATKA , AK, US) observed 0956 UTC 23 June 2019
Temperature: 8.3°C (47°F)
Dewpoint: 7.2°C (45°F) [RH = 93%]
Pressure (altimeter): 30.18 inches Hg (1022.1 mb)
[Sea-level pressure: 1022.0 mb]
Winds: from the SE (130 degrees) at 13 MPH (11 knots; 5.7 m/s)
Visibility: 8 miles (13 km)
Ceiling: 1000 feet AGL
Clouds: overcast cloud deck at 1000 feet AGL
Weather: automated observation with no human augmentation;
there may or may not be significant weather present at this time

METAR text: PAAK 230929Z AUTO 13014G21KT 6SM -RA BR BKN010 OVC014 08/07 A3018 RMK AO2 CIG 007V011 P0001
Conditions at: PAAK (ATKA , AK, US) observed 0929 UTC 23 June 2019
Temperature: 8.0°C (46°F)
Dewpoint: 7.0°C (45°F) [RH = 93%]
Pressure (altimeter): 30.18 inches Hg (1022.1 mb)
Winds: from the SE (130 degrees) at 16 MPH (14 knots; 7.2 m/s)
gusting to 24 MPH (21 knots; 10.8 m/s)
Visibility: 6 miles (10 km)
Ceiling: 1000 feet AGL
Clouds: broken clouds at 1000 feet AGL
overcast cloud deck at 1400 feet AGL
Weather: -RA BR  (light rain, mist)

METAR text: PAAK 230856Z AUTO 12014G19KT 5SM -RA BR OVC009 08/07 A3017 RMK AO2 CIG 007V013 SLP219 6//// T00830072 400890061 55008
Conditions at: PAAK (ATKA , AK, US) observed 0856 UTC 23 June 2019
Temperature: 8.3°C (47°F)
Dewpoint: 7.2°C (45°F) [RH = 93%]
Pressure (altimeter): 30.17 inches Hg (1021.8 mb)
[Sea-level pressure: 1021.9 mb]
Winds: from the ESE (120 degrees) at 16 MPH (14 knots; 7.2 m/s)
gusting to 22 MPH (19 knots; 9.8 m/s)
Visibility: 5 miles ( 8 km)
Ceiling: 900 feet AGL
Clouds: overcast cloud deck at 900 feet AGL
Weather: -RA BR  (light rain, mist)

METAR text: PAAK 230756Z AUTO 13015G21KT 8SM -RA OVC009 08/07 A3017 RMK AO2 RAB25 CIG 006V013 SLP218 P0000 T00830067
Conditions at: PAAK (ATKA , AK, US) observed 0756 UTC 23 June 2019
Temperature: 8.3°C (47°F)
Dewpoint: 6.7°C (44°F) [RH = 90%]
Pressure (altimeter): 30.17 inches Hg (1021.8 mb)
[Sea-level pressure: 1021.8 mb]
Winds: from the SE (130 degrees) at 17 MPH (15 knots; 7.7 m/s)
gusting to 24 MPH (21 knots; 10.8 m/s)
Visibility: 8 miles (13 km)
Ceiling: 900 feet AGL
Clouds: overcast cloud deck at 900 feet AGL
Weather: -RA  (light rain)

METAR text: PAAK 230656Z AUTO 11013G20KT 4SM BR OVC007 08/06 A3019 RMK AO2 CIG 007V012 SLP224 T00780061
Conditions at: PAAK (ATKA , AK, US) observed 0656 UTC 23 June 2019
Temperature: 7.8°C (46°F)
Dewpoint: 6.1°C (43°F) [RH = 89%]
Pressure (altimeter): 30.19 inches Hg (1022.4 mb)
[Sea-level pressure: 1022.4 mb]
Winds: from the ESE (110 degrees) at 15 MPH (13 knots; 6.7 m/s)
gusting to 23 MPH (20 knots; 10.3 m/s)
Visibility: 4 miles ( 6 km)
Ceiling: 700 feet AGL
Clouds: overcast cloud deck at 700 feet AGL
Weather: BR  (mist)

METAR text: PAAK 230620Z AUTO 10013KT 3SM BR OVC009 08/07 A3019 RMK AO2
Conditions at: PAAK (ATKA , AK, US) observed 0620 UTC 23 June 2019
Temperature: 8.0°C (46°F)
Dewpoint: 7.0°C (45°F) [RH = 93%]
Pressure (altimeter): 30.19 inches Hg (1022.4 mb)
Winds: from the E (100 degrees) at 15 MPH (13 knots; 6.7 m/s)
Visibility: 3 miles ( 5 km)
Ceiling: 900 feet AGL
Clouds: overcast cloud deck at 900 feet AGL
Weather: BR  (mist)